createdAt,value
2017-07-30T00:01:39.746Z,7.40
2017-07-30T00:04:07.146Z,7.87
2017-07-30T00:06:33.634Z,7.87
2017-07-30T00:09:00.033Z,7.27
2017-07-30T00:11:33.637Z,7.70
2017-07-30T00:14:00.239Z,8.33
2017-07-30T00:16:26.731Z,7.30
2017-07-30T00:18:53.151Z,7.70
2017-07-30T00:21:19.880Z,8.13
2017-07-30T00:23:46.415Z,7.67
2017-07-30T00:26:13.590Z,8.10
2017-07-30T00:28:39.992Z,8.37
2017-07-30T00:31:07.149Z,7.50
2017-07-30T00:33:33.684Z,7.77
2017-07-30T00:36:00.874Z,8.10
2017-07-30T00:38:27.271Z,8.50
2017-07-30T00:40:53.901Z,8.00
2017-07-30T00:43:21.007Z,7.53
2017-07-30T00:45:47.411Z,7.43
2017-07-30T00:48:13.886Z,7.40
2017-07-30T00:50:40.305Z,8.53
2017-07-30T00:53:06.708Z,8.63
2017-07-30T00:55:33.260Z,6.50
2017-07-30T00:57:59.636Z,8.13
2017-07-30T01:00:26.031Z,8.87
2017-07-30T01:02:52.438Z,7.83
2017-07-30T01:05:18.859Z,7.30
2017-07-30T01:07:45.252Z,8.00
2017-07-30T01:10:11.659Z,6.70
2017-07-30T01:12:38.055Z,7.60
2017-07-30T01:15:04.520Z,7.67
2017-07-30T01:17:30.950Z,8.33
2017-07-30T01:19:57.340Z,7.43
2017-07-30T01:22:24.535Z,7.43
2017-07-30T01:24:50.935Z,7.97
2017-07-30T01:27:17.417Z,7.50
2017-07-30T01:29:43.819Z,6.97
2017-07-30T01:32:10.226Z,7.37
2017-07-30T01:34:37.351Z,7.97
2017-07-30T01:37:03.871Z,8.10
2017-07-30T01:39:30.311Z,8.03
2017-07-30T01:41:56.715Z,6.80
2017-07-30T01:44:23.135Z,10.00
2017-07-30T01:46:49.599Z,8.30
2017-07-30T01:49:16.146Z,8.63
2017-07-30T01:51:42.808Z,11.37
2017-07-30T01:54:09.966Z,9.40
2017-07-30T01:56:37.526Z,8.47
2017-07-30T01:59:03.926Z,7.60
2017-07-30T02:01:30.364Z,7.30
2017-07-30T02:03:56.887Z,8.17
2017-07-30T02:06:23.286Z,8.50
2017-07-30T02:08:49.687Z,6.60
2017-07-30T02:11:16.848Z,8.67
2017-07-30T02:13:43.282Z,8.20
2017-07-30T02:16:09.735Z,8.10
2017-07-30T02:18:36.127Z,8.43
2017-07-30T02:21:03.334Z,8.33
2017-07-30T02:23:29.770Z,8.67
2017-07-30T02:25:56.206Z,8.37
2017-07-30T02:28:22.571Z,7.33
2017-07-30T02:30:48.971Z,8.30
2017-07-30T02:33:15.352Z,8.50
2017-07-30T02:35:41.829Z,7.67
2017-07-30T02:38:08.291Z,7.30
2017-07-30T02:40:34.743Z,8.83
2017-07-30T02:43:01.879Z,8.07
2017-07-30T02:45:28.356Z,9.30
2017-07-30T02:47:54.786Z,8.20
2017-07-30T02:50:21.246Z,7.20
2017-07-30T02:52:47.617Z,8.90
2017-07-30T02:55:14.194Z,8.50
2017-07-30T02:57:40.707Z,7.63
2017-07-30T03:00:07.146Z,8.27
2017-07-30T03:02:33.579Z,8.80
2017-07-30T03:05:00.191Z,7.97
2017-07-30T03:07:27.428Z,8.70
2017-07-30T03:09:53.815Z,8.73
2017-07-30T03:12:20.263Z,8.77
2017-07-30T03:14:46.684Z,7.60
2017-07-30T03:17:13.341Z,8.67
2017-07-30T03:19:39.730Z,7.70
2017-07-30T03:22:06.516Z,8.83
2017-07-30T03:24:32.892Z,8.80
2017-07-30T03:27:00.626Z,9.30
2017-07-30T03:29:27.919Z,8.67
2017-07-30T03:31:55.047Z,9.30
2017-07-30T03:34:21.702Z,9.10
2017-07-30T03:36:51.047Z,8.27
2017-07-30T03:39:18.543Z,8.03
2017-07-30T03:41:44.987Z,9.07
2017-07-30T03:44:12.123Z,7.57
2017-07-30T03:46:39.316Z,8.73
2017-07-30T03:49:05.684Z,7.93
2017-07-30T03:51:32.127Z,9.00
2017-07-30T03:53:58.583Z,7.53
2017-07-30T03:56:25.816Z,8.47
2017-07-30T03:58:52.211Z,8.63
2017-07-30T04:01:18.619Z,9.67
2017-07-30T04:03:45.048Z,9.43
2017-07-30T04:06:11.519Z,9.20
2017-07-30T04:08:38.335Z,8.20
2017-07-30T04:11:04.703Z,8.33
2017-07-30T04:13:31.930Z,7.80
2017-07-30T04:15:58.404Z,8.60
2017-07-30T04:18:24.790Z,8.20
2017-07-30T04:20:51.182Z,8.60
2017-07-30T04:23:17.622Z,8.90
2017-07-30T04:25:44.897Z,7.70
2017-07-30T04:28:11.276Z,8.37
2017-07-30T04:30:38.664Z,8.40
2017-07-30T04:33:05.790Z,7.83
2017-07-30T04:35:32.214Z,8.40
2017-07-30T04:37:58.688Z,8.73
2017-07-30T04:40:25.320Z,8.80
2017-07-30T04:42:52.644Z,8.30
2017-07-30T04:45:19.176Z,8.97
2017-07-30T04:47:45.590Z,8.47
2017-07-30T04:50:11.993Z,8.70
2017-07-30T04:52:38.591Z,8.50
2017-07-30T04:55:05.029Z,9.50
2017-07-30T04:57:32.172Z,8.20
2017-07-30T04:59:58.702Z,9.27
2017-07-30T05:02:25.275Z,9.37
2017-07-30T05:04:52.403Z,9.00
2017-07-30T05:07:18.916Z,10.40
2017-07-30T05:09:45.394Z,8.90
2017-07-30T05:12:12.850Z,9.30
2017-07-30T05:14:39.971Z,9.60
2017-07-30T05:17:06.459Z,10.03
2017-07-30T05:19:33.073Z,9.17
2017-07-30T05:22:00.195Z,9.03
2017-07-30T05:24:26.608Z,9.27
2017-07-30T05:26:53.164Z,9.73
2017-07-30T05:29:19.687Z,8.77
2017-07-30T05:31:46.143Z,8.70
2017-07-30T05:34:13.487Z,9.70
2017-07-30T05:36:39.992Z,10.13
2017-07-30T05:39:07.311Z,9.13
2017-07-30T05:41:34.058Z,9.87
2017-07-30T05:44:00.451Z,9.97
2017-07-30T05:46:26.964Z,9.90
2017-07-30T05:48:53.368Z,10.13
2017-07-30T05:51:19.900Z,10.17
2017-07-30T05:53:46.472Z,10.03
2017-07-30T05:56:12.851Z,10.50
2017-07-30T05:58:39.255Z,11.30
2017-07-30T06:01:05.803Z,11.33
2017-07-30T06:03:32.928Z,11.50
2017-07-30T06:05:59.328Z,11.37
2017-07-30T06:08:25.928Z,10.50
2017-07-30T06:10:53.067Z,11.40
2017-07-30T06:13:20.199Z,10.63
2017-07-30T06:15:46.726Z,11.50
2017-07-30T06:18:13.266Z,10.70
2017-07-30T06:20:40.720Z,10.60
2017-07-30T06:23:07.171Z,9.83
2017-07-30T06:25:33.655Z,10.90
2017-07-30T06:28:00.581Z,11.47
2017-07-30T06:30:27.075Z,9.60
2017-07-30T06:32:53.715Z,11.03
2017-07-30T06:35:20.227Z,10.20
2017-07-30T06:37:46.847Z,10.53
2017-07-30T06:40:13.210Z,10.35
2017-07-30T06:42:39.611Z,9.90
2017-07-30T06:45:06.008Z,11.17
2017-07-30T06:47:33.264Z,9.80
2017-07-30T06:49:59.644Z,9.77
2017-07-30T06:52:26.033Z,9.80
2017-07-30T06:54:52.548Z,10.67
2017-07-30T06:57:19.752Z,9.23
2017-07-30T06:59:46.126Z,10.30
2017-07-30T07:02:12.537Z,8.90
2017-07-30T07:04:38.910Z,10.13
2017-07-30T07:07:05.382Z,10.50
2017-07-30T07:09:31.807Z,10.07
2017-07-30T07:11:58.219Z,10.60
2017-07-30T07:14:24.602Z,10.03
2017-07-30T07:16:50.999Z,9.70
2017-07-30T07:19:17.446Z,7.87
2017-07-30T07:21:43.830Z,7.77
2017-07-30T07:24:11.103Z,9.10
2017-07-30T07:26:37.536Z,9.20
2017-07-30T07:29:03.907Z,9.53
2017-07-30T07:31:30.420Z,9.30
2017-07-30T07:33:56.791Z,8.60
2017-07-30T07:36:23.327Z,9.50
2017-07-30T07:38:49.751Z,10.07
2017-07-30T07:41:16.151Z,9.13
2017-07-30T07:43:42.593Z,9.80
2017-07-30T07:46:09.000Z,9.63
2017-07-30T07:48:35.410Z,8.93
2017-07-30T07:51:02.549Z,9.80
2017-07-30T07:53:29.676Z,9.20
2017-07-30T07:55:56.104Z,8.40
2017-07-30T07:58:22.606Z,9.60
2017-07-30T08:00:49.023Z,8.47
2017-07-30T08:03:15.476Z,9.90
2017-07-30T08:05:42.717Z,10.90
2017-07-30T08:08:09.263Z,9.40
2017-07-30T08:10:35.667Z,7.60
2017-07-30T08:13:02.777Z,8.57
2017-07-30T08:15:29.454Z,8.60
2017-07-30T08:17:56.899Z,8.87
2017-07-30T08:20:24.044Z,8.20
2017-07-30T08:22:50.454Z,7.50
2017-07-30T08:25:17.035Z,9.80
2017-07-30T08:27:43.459Z,8.87
2017-07-30T08:30:10.599Z,9.20
2017-07-30T08:32:37.759Z,8.97
2017-07-30T08:35:04.959Z,9.00
2017-07-30T08:37:31.344Z,9.80
2017-07-30T08:39:58.536Z,8.60
2017-07-30T08:42:24.965Z,9.10
2017-07-30T08:44:51.391Z,29.67
2017-07-30T08:47:17.867Z,9.70
2017-07-30T08:49:44.288Z,9.97
2017-07-30T08:52:10.710Z,8.70
2017-07-30T08:54:37.126Z,8.57
2017-07-30T08:57:03.599Z,8.90
2017-07-30T08:59:30.075Z,9.07
2017-07-30T09:01:56.455Z,9.20
2017-07-30T09:04:23.171Z,8.77
2017-07-30T09:06:49.655Z,8.50
2017-07-30T09:09:16.823Z,9.67
2017-07-30T09:11:43.291Z,11.63
2017-07-30T09:14:09.897Z,10.80
2017-07-30T09:16:36.591Z,10.03
2017-07-30T09:19:03.015Z,9.47
2017-07-30T09:21:29.615Z,8.17
2017-07-30T09:23:56.067Z,7.90
2017-07-30T09:26:22.607Z,9.00
2017-07-30T09:28:49.170Z,9.03
2017-07-30T09:31:15.578Z,8.30
2017-07-30T09:33:41.979Z,8.90
2017-07-30T09:36:08.429Z,8.23
2017-07-30T09:38:34.835Z,7.90
2017-07-30T09:41:01.231Z,9.30
2017-07-30T09:43:27.621Z,9.20
2017-07-30T09:45:54.088Z,11.00
2017-07-30T09:48:20.531Z,8.97
2017-07-30T09:50:47.784Z,8.67
2017-07-30T09:53:14.232Z,9.20
2017-07-30T09:55:40.751Z,8.80
2017-07-30T09:58:07.155Z,7.70
2017-07-30T10:00:33.535Z,9.77
2017-07-30T10:03:00.696Z,9.07
2017-07-30T10:05:27.198Z,9.50
2017-07-30T10:07:53.588Z,8.77
2017-07-30T10:10:19.988Z,8.60
2017-07-30T10:12:46.397Z,8.30
2017-07-30T10:15:12.814Z,7.93
2017-07-30T10:17:39.229Z,8.23
2017-07-30T10:20:05.616Z,8.63
2017-07-30T10:22:32.782Z,8.60
2017-07-30T10:24:59.175Z,8.53
2017-07-30T10:27:25.699Z,8.50
2017-07-30T10:29:52.099Z,8.00
2017-07-30T10:32:18.491Z,8.30
2017-07-30T10:34:45.147Z,7.33
2017-07-30T10:37:11.590Z,9.00
2017-07-30T10:39:38.015Z,8.10
2017-07-30T10:42:04.419Z,8.43
2017-07-30T10:44:30.838Z,8.53
2017-07-30T10:46:57.247Z,9.53
2017-07-30T10:49:23.623Z,8.97
2017-07-30T10:51:50.042Z,8.80
2017-07-30T10:54:16.447Z,9.10
2017-07-30T10:56:42.848Z,8.90
2017-07-30T10:59:09.251Z,10.13
2017-07-30T11:01:35.639Z,9.03
2017-07-30T11:04:02.251Z,8.23
2017-07-30T11:06:28.719Z,8.70
2017-07-30T11:08:55.581Z,10.10
2017-07-30T11:11:22.051Z,8.90
2017-07-30T11:13:48.590Z,9.30
2017-07-30T11:16:15.044Z,8.90
2017-07-30T11:18:41.414Z,7.67
2017-07-30T11:21:07.823Z,8.03
2017-07-30T11:23:34.232Z,9.07
2017-07-30T11:26:00.888Z,8.03
2017-07-30T11:28:28.325Z,8.30
2017-07-30T11:30:54.771Z,7.73
2017-07-30T11:33:21.188Z,8.33
2017-07-30T11:35:47.830Z,8.10
2017-07-30T11:38:14.216Z,8.03
2017-07-30T11:40:40.603Z,7.73
2017-07-30T11:43:07.008Z,7.70
2017-07-30T11:45:34.533Z,7.50
2017-07-30T11:48:00.900Z,8.07
2017-07-30T11:50:28.111Z,8.23
2017-07-30T11:52:54.699Z,8.00
2017-07-30T11:55:21.167Z,8.90
2017-07-30T11:57:47.816Z,7.97
2017-07-30T12:00:14.362Z,7.97
2017-07-30T12:02:40.773Z,7.70
2017-07-30T12:05:07.457Z,8.03
2017-07-30T12:07:34.579Z,8.20
2017-07-30T12:10:01.111Z,6.63
2017-07-30T12:12:27.545Z,7.70
2017-07-30T12:14:54.020Z,6.50
2017-07-30T12:17:21.316Z,6.47
2017-07-30T12:19:47.723Z,7.13
2017-07-30T12:22:14.147Z,6.57
2017-07-30T12:24:40.531Z,6.70
2017-07-30T12:27:07.060Z,6.70
2017-07-30T12:29:33.478Z,7.60
2017-07-30T12:31:59.942Z,7.47
2017-07-30T12:34:26.711Z,7.20
2017-07-30T12:36:54.006Z,7.03
2017-07-30T12:39:20.382Z,6.67
2017-07-30T12:41:47.511Z,7.07
2017-07-30T12:44:13.923Z,7.40
2017-07-30T12:46:40.775Z,6.77
2017-07-30T12:49:07.160Z,5.90
2017-07-30T12:51:33.551Z,6.20
2017-07-30T12:53:59.938Z,6.23
2017-07-30T12:56:26.535Z,5.90
2017-07-30T12:58:53.711Z,6.00
2017-07-30T13:01:20.168Z,6.37
2017-07-30T13:03:46.602Z,6.50
2017-07-30T13:06:13.099Z,6.07
2017-07-30T13:08:40.253Z,6.60
2017-07-30T13:11:07.542Z,5.23
2017-07-30T13:13:33.950Z,6.40
2017-07-30T13:16:00.439Z,6.80
2017-07-30T13:18:26.842Z,5.20
2017-07-30T13:20:53.288Z,5.40
2017-07-30T13:23:19.800Z,6.00
2017-07-30T13:26:02.315Z,5.73
2017-07-30T13:28:28.724Z,6.20
2017-07-30T13:30:55.880Z,6.20
2017-07-30T13:33:22.299Z,6.27
2017-07-30T13:35:48.776Z,6.80
2017-07-30T13:38:15.367Z,6.77
2017-07-30T13:40:42.583Z,6.40
2017-07-30T13:43:08.972Z,6.60
2017-07-30T13:45:35.643Z,6.57
2017-07-30T13:48:02.192Z,6.07
2017-07-30T13:50:28.847Z,5.93
2017-07-30T13:52:55.281Z,5.20
2017-07-30T13:55:21.975Z,5.50
2017-07-30T13:57:48.589Z,6.47
2017-07-30T14:00:14.995Z,6.17
2017-07-30T14:02:42.147Z,5.70
2017-07-30T14:05:09.275Z,5.60
2017-07-30T14:07:35.800Z,5.10
2017-07-30T14:10:02.236Z,5.80
2017-07-30T14:12:28.662Z,5.80
2017-07-30T14:14:55.075Z,6.27
2017-07-30T14:17:21.532Z,5.43
2017-07-30T14:19:47.905Z,5.20
2017-07-30T14:22:15.068Z,6.33
2017-07-30T14:24:41.440Z,5.10
2017-07-30T14:27:07.882Z,5.10
2017-07-30T14:29:34.288Z,5.80
2017-07-30T14:32:00.820Z,5.40
2017-07-30T14:34:27.188Z,5.20
2017-07-30T14:36:53.699Z,5.47
2017-07-30T14:39:20.163Z,5.80
2017-07-30T14:41:46.804Z,5.20
2017-07-30T14:44:13.495Z,5.93
2017-07-30T14:46:39.963Z,5.57
2017-07-30T14:49:06.359Z,5.80
2017-07-30T14:51:32.774Z,5.87
2017-07-30T14:53:59.214Z,5.43
2017-07-30T14:56:25.695Z,5.70
2017-07-30T14:58:52.252Z,6.37
2017-07-30T15:01:18.715Z,5.37
2017-07-30T15:03:45.134Z,6.50
2017-07-30T15:06:11.699Z,5.93
2017-07-30T15:08:38.111Z,5.33
2017-07-30T15:11:04.690Z,4.97
2017-07-30T15:13:31.243Z,5.33
2017-07-30T15:15:58.595Z,5.90
2017-07-30T15:18:25.023Z,5.10
2017-07-30T15:20:51.878Z,4.80
2017-07-30T15:23:18.610Z,5.37
2017-07-30T15:25:45.147Z,5.73
2017-07-30T15:28:11.587Z,6.03
2017-07-30T15:30:38.781Z,5.90
2017-07-30T15:33:06.374Z,5.43
2017-07-30T15:35:33.038Z,5.97
2017-07-30T15:37:59.497Z,5.90
2017-07-30T15:40:25.977Z,6.23
2017-07-30T15:42:52.679Z,7.07
2017-07-30T15:45:19.136Z,6.63
2017-07-30T15:47:45.583Z,6.70
2017-07-30T15:50:12.149Z,6.70
2017-07-30T15:52:38.534Z,7.40
2017-07-30T15:55:05.138Z,7.60
2017-07-30T15:57:32.259Z,6.67
2017-07-30T15:59:58.652Z,7.50
2017-07-30T16:02:25.051Z,6.90
2017-07-30T16:04:52.200Z,6.97
2017-07-30T16:07:18.932Z,6.07
2017-07-30T16:10:00.467Z,7.00
2017-07-30T16:12:27.963Z,6.47
2017-07-30T16:14:54.642Z,5.40
2017-07-30T16:17:21.395Z,5.07
2017-07-30T16:19:47.944Z,5.73
2017-07-30T16:22:15.360Z,4.97
2017-07-30T16:24:41.822Z,4.13
2017-07-30T16:27:08.290Z,4.57
2017-07-30T16:29:34.967Z,4.70
2017-07-30T16:32:02.211Z,4.47
2017-07-30T16:34:28.777Z,5.10
2017-07-30T16:36:55.220Z,5.00
2017-07-30T16:39:21.759Z,4.60
2017-07-30T16:41:48.203Z,6.00
2017-07-30T16:44:14.699Z,5.10
2017-07-30T16:46:41.163Z,5.30
2017-07-30T16:49:07.683Z,5.83
2017-07-30T16:51:34.095Z,5.57
2017-07-30T16:54:01.271Z,5.60
2017-07-30T16:56:27.679Z,6.40
2017-07-30T16:58:54.099Z,5.87
2017-07-30T17:01:21.217Z,6.07
2017-07-30T17:03:47.622Z,6.20
2017-07-30T17:06:14.174Z,5.77
2017-07-30T17:08:40.552Z,5.97
2017-07-30T17:11:07.759Z,5.67
2017-07-30T17:13:34.164Z,5.10
2017-07-30T17:16:01.651Z,4.47
2017-07-30T17:18:28.155Z,5.70
2017-07-30T17:20:54.552Z,5.43
2017-07-30T17:23:22.603Z,5.67
2017-07-30T17:25:49.031Z,5.67
2017-07-30T17:28:15.411Z,5.00
2017-07-30T17:30:41.820Z,4.37
2017-07-30T17:33:08.951Z,4.97
2017-07-30T17:35:35.494Z,4.10
2017-07-30T17:38:01.881Z,3.93
2017-07-30T17:40:28.561Z,4.77
2017-07-30T17:42:55.023Z,4.10
2017-07-30T17:45:22.243Z,4.00
2017-07-30T17:47:48.622Z,3.77
2017-07-30T17:50:15.051Z,3.70
2017-07-30T17:52:41.455Z,3.30
2017-07-30T17:55:07.860Z,3.60
2017-07-30T17:57:34.252Z,3.63
2017-07-30T18:00:00.627Z,4.10
2017-07-30T18:02:27.059Z,4.50
2017-07-30T18:04:53.460Z,3.57
2017-07-30T18:07:19.957Z,3.90
2017-07-30T18:09:47.095Z,3.77
2017-07-30T18:12:13.570Z,3.80
2017-07-30T18:14:39.987Z,4.00
2017-07-30T18:17:07.172Z,4.33
2017-07-30T18:19:33.651Z,3.40
2017-07-30T18:22:00.035Z,3.63
2017-07-30T18:24:26.639Z,3.67
2017-07-30T18:26:53.082Z,3.93
2017-07-30T18:29:19.488Z,3.80
2017-07-30T18:31:45.950Z,4.70
2017-07-30T18:34:12.416Z,3.37
2017-07-30T18:36:38.831Z,3.70
2017-07-30T18:39:05.215Z,3.50
2017-07-30T18:41:31.740Z,3.80
2017-07-30T18:43:58.283Z,4.10
2017-07-30T18:46:25.583Z,3.77
2017-07-30T18:48:52.231Z,3.70
2017-07-30T18:51:18.707Z,3.60
2017-07-30T18:53:45.146Z,3.70
2017-07-30T18:56:12.687Z,4.73
2017-07-30T18:58:39.078Z,4.30
2017-07-30T19:01:05.699Z,3.70
2017-07-30T19:03:32.119Z,4.60
2017-07-30T19:06:00.699Z,3.83
2017-07-30T19:08:27.855Z,4.03
2017-07-30T19:10:54.964Z,4.20
2017-07-30T19:13:21.398Z,3.60
2017-07-30T19:15:47.828Z,4.10
2017-07-30T19:18:14.396Z,4.07
2017-07-30T19:20:41.728Z,3.40
2017-07-30T19:23:08.963Z,4.00
2017-07-30T19:25:35.458Z,4.20
2017-07-30T19:28:02.184Z,3.53
2017-07-30T19:30:28.592Z,3.90
2017-07-30T19:32:54.980Z,3.30
2017-07-30T19:35:21.444Z,3.43
2017-07-30T19:37:47.979Z,3.70
2017-07-30T19:40:14.479Z,4.10
2017-07-30T19:42:41.148Z,4.30
2017-07-30T19:45:08.384Z,3.57
2017-07-30T19:47:35.246Z,4.10
2017-07-30T19:50:01.695Z,3.73
2017-07-30T19:52:28.636Z,3.60
2017-07-30T19:54:55.187Z,3.53
2017-07-30T19:57:21.715Z,3.70
2017-07-30T19:59:48.243Z,3.40
2017-07-30T20:02:14.684Z,3.93
2017-07-30T20:04:41.095Z,3.93
2017-07-30T20:07:07.595Z,4.50
2017-07-30T20:09:33.997Z,3.40
2017-07-30T20:12:00.484Z,4.23
2017-07-30T20:14:27.758Z,3.73
2017-07-30T20:16:54.284Z,4.07
2017-07-30T20:19:20.696Z,4.30
2017-07-30T20:21:47.122Z,4.67
2017-07-30T20:24:13.536Z,4.10
2017-07-30T20:26:40.040Z,3.20
2017-07-30T20:29:13.460Z,3.77
2017-07-30T20:31:39.872Z,4.47
2017-07-30T20:34:06.564Z,4.60
2017-07-30T20:36:33.993Z,4.43
2017-07-30T20:39:07.535Z,4.23
2017-07-30T20:41:33.959Z,4.40
2017-07-30T20:44:01.112Z,3.70
2017-07-30T20:46:27.672Z,5.20
2017-07-30T20:48:54.058Z,3.70
2017-07-30T20:51:20.475Z,4.10
2017-07-30T20:53:47.351Z,3.53
2017-07-30T20:56:13.774Z,3.83
2017-07-30T20:58:40.188Z,4.17
2017-07-30T21:01:06.599Z,3.63
2017-07-30T21:03:33.744Z,3.90
2017-07-30T21:06:00.991Z,4.30
2017-07-30T21:08:27.364Z,4.70
2017-07-30T21:10:53.766Z,4.00
2017-07-30T21:13:20.924Z,4.47
2017-07-30T21:15:48.241Z,4.30
2017-07-30T21:18:14.665Z,4.60
2017-07-30T21:20:41.106Z,5.10
2017-07-30T21:23:07.507Z,4.37
2017-07-30T21:25:34.359Z,4.83
2017-07-30T21:28:00.844Z,4.10
2017-07-30T21:30:28.079Z,4.37
2017-07-30T21:32:54.675Z,4.23
2017-07-30T21:35:21.258Z,4.70
2017-07-30T21:37:47.856Z,4.47
2017-07-30T21:40:14.215Z,4.43
2017-07-30T21:42:41.019Z,4.93
2017-07-30T21:45:07.525Z,4.47
2017-07-30T21:47:34.013Z,4.17
2017-07-30T21:50:00.411Z,4.63
2017-07-30T21:52:26.819Z,4.77
2017-07-30T21:54:53.960Z,4.47
2017-07-30T21:57:21.148Z,4.00
2017-07-30T21:59:47.547Z,4.03
2017-07-30T22:02:14.667Z,4.60
2017-07-30T22:04:41.113Z,5.00
2017-07-30T22:07:08.351Z,4.37
2017-07-30T22:09:34.775Z,3.97
2017-07-30T22:12:01.242Z,4.50
2017-07-30T22:14:28.495Z,3.97
2017-07-30T22:16:55.683Z,4.47
2017-07-30T22:19:22.090Z,4.73
2017-07-30T22:21:48.511Z,4.87
2017-07-30T22:24:14.922Z,4.90
2017-07-30T22:26:41.527Z,4.90
2017-07-30T22:29:07.936Z,4.60
2017-07-30T22:31:34.342Z,4.83
2017-07-30T22:34:01.547Z,4.63
2017-07-30T22:36:28.016Z,4.70
2017-07-30T22:38:54.409Z,4.77
2017-07-30T22:41:20.800Z,4.13
2017-07-30T22:43:47.976Z,4.50
2017-07-30T22:46:14.411Z,5.40
2017-07-30T22:48:40.914Z,4.60
2017-07-30T22:51:07.366Z,5.17
2017-07-30T22:53:33.823Z,5.27
2017-07-30T22:56:00.436Z,4.60
2017-07-30T22:58:26.815Z,4.97
2017-07-30T23:00:53.209Z,4.70
2017-07-30T23:03:20.287Z,4.60
2017-07-30T23:05:46.727Z,4.57
2017-07-30T23:08:13.178Z,5.03
2017-07-30T23:10:39.568Z,4.10
2017-07-30T23:13:05.992Z,5.63
2017-07-30T23:15:32.435Z,4.60
2017-07-30T23:17:58.938Z,4.70
2017-07-30T23:20:25.343Z,4.73
2017-07-30T23:22:51.771Z,5.20
2017-07-30T23:25:18.199Z,4.60
2017-07-30T23:27:44.571Z,4.77
2017-07-30T23:30:11.792Z,4.87
2017-07-30T23:32:38.154Z,5.10
2017-07-30T23:35:05.318Z,5.97
2017-07-30T23:37:31.875Z,5.07
2017-07-30T23:39:58.266Z,6.50
2017-07-30T23:42:25.395Z,4.93
2017-07-30T23:44:51.971Z,5.40
2017-07-30T23:47:18.411Z,5.80
2017-07-30T23:49:44.800Z,5.10
2017-07-30T23:52:11.244Z,5.50
2017-07-30T23:54:37.631Z,4.90
2017-07-30T23:57:19.036Z,4.87
2017-07-30T23:59:45.439Z,4.93
